sensor_id;sensor_type;location;lat;lon;timestamp;P1;durP1;ratioP1;P2;durP2;ratioP2
10795;SDS011;5450;42.994;23.372;2023-04-03T00:01:59;3.47;;;3.17;;
10795;SDS011;5450;42.994;23.372;2023-04-03T00:04:26;4.60;;;3.20;;
10795;SDS011;5450;42.994;23.372;2023-04-03T00:06:53;5.33;;;3.40;;
10795;SDS011;5450;42.994;23.372;2023-04-03T00:09:27;4.43;;;4.03;;
10795;SDS011;5450;42.994;23.372;2023-04-03T00:11:55;5.27;;;4.77;;
10795;SDS011;5450;42.994;23.372;2023-04-03T00:14:22;4.87;;;4.47;;
10795;SDS011;5450;42.994;23.372;2023-04-03T00:16:50;4.30;;;3.83;;
10795;SDS011;5450;42.994;23.372;2023-04-03T00:19:18;5.97;;;4.10;;
10795;SDS011;5450;42.994;23.372;2023-04-03T00:21:55;5.97;;;4.20;;
10795;SDS011;5450;42.994;23.372;2023-04-03T00:24:22;5.67;;;5.17;;
10795;SDS011;5450;42.994;23.372;2023-04-03T00:26:51;5.80;;;4.77;;
10795;SDS011;5450;42.994;23.372;2023-04-03T00:29:17;5.30;;;4.80;;
10795;SDS011;5450;42.994;23.372;2023-04-03T00:31:44;4.57;;;4.27;;
10795;SDS011;5450;42.994;23.372;2023-04-03T00:34:11;4.60;;;4.17;;
10795;SDS011;5450;42.994;23.372;2023-04-03T00:36:39;7.07;;;5.30;;
10795;SDS011;5450;42.994;23.372;2023-04-03T00:39:06;16.43;;;8.63;;
10795;SDS011;5450;42.994;23.372;2023-04-03T00:41:34;15.63;;;9.13;;
10795;SDS011;5450;42.994;23.372;2023-04-03T00:46:59;19.83;;;9.67;;
10795;SDS011;5450;42.994;23.372;2023-04-03T00:49:27;21.63;;;10.13;;
10795;SDS011;5450;42.994;23.372;2023-04-03T00:52:01;18.77;;;9.70;;
10795;SDS011;5450;42.994;23.372;2023-04-03T00:54:29;18.70;;;9.87;;
10795;SDS011;5450;42.994;23.372;2023-04-03T00:56:56;18.37;;;8.73;;
10795;SDS011;5450;42.994;23.372;2023-04-03T00:59:25;16.80;;;8.10;;
10795;SDS011;5450;42.994;23.372;2023-04-03T01:01:57;6.90;;;6.03;;
10795;SDS011;5450;42.994;23.372;2023-04-03T01:04:27;11.20;;;6.33;;
10795;SDS011;5450;42.994;23.372;2023-04-03T01:06:56;11.23;;;6.23;;
10795;SDS011;5450;42.994;23.372;2023-04-03T01:09:25;10.63;;;5.20;;
10795;SDS011;5450;42.994;23.372;2023-04-03T01:11:52;5.53;;;4.07;;
10795;SDS011;5450;42.994;23.372;2023-04-03T01:14:19;5.77;;;4.17;;
10795;SDS011;5450;42.994;23.372;2023-04-03T01:23:25;4.77;;;4.23;;
10795;SDS011;5450;42.994;23.372;2023-04-03T01:26:04;4.97;;;3.93;;
10795;SDS011;5450;42.994;23.372;2023-04-03T01:28:32;4.27;;;3.87;;
10795;SDS011;5450;42.994;23.372;2023-04-03T01:31:02;4.03;;;3.67;;
10795;SDS011;5450;42.994;23.372;2023-04-03T01:33:37;3.60;;;3.30;;
10795;SDS011;5450;42.994;23.372;2023-04-03T01:36:05;3.57;;;3.30;;
10795;SDS011;5450;42.994;23.372;2023-04-03T01:38:34;3.57;;;3.20;;
10795;SDS011;5450;42.994;23.372;2023-04-03T01:41:01;3.13;;;2.83;;
10795;SDS011;5450;42.994;23.372;2023-04-03T01:43:28;5.13;;;2.60;;
10795;SDS011;5450;42.994;23.372;2023-04-03T01:45:56;3.03;;;2.83;;
10795;SDS011;5450;42.994;23.372;2023-04-03T01:51:22;2.67;;;2.47;;
10795;SDS011;5450;42.994;23.372;2023-04-03T01:53:51;2.67;;;2.47;;
10795;SDS011;5450;42.994;23.372;2023-04-03T01:59:23;2.27;;;2.07;;
10795;SDS011;5450;42.994;23.372;2023-04-03T02:01:59;2.80;;;2.33;;
10795;SDS011;5450;42.994;23.372;2023-04-03T02:04:28;2.33;;;2.17;;
10795;SDS011;5450;42.994;23.372;2023-04-03T02:06:55;7.43;;;4.80;;
10795;SDS011;5450;42.994;23.372;2023-04-03T02:09:23;3.87;;;3.40;;
10795;SDS011;5450;42.994;23.372;2023-04-03T02:11:52;3.03;;;2.57;;
10795;SDS011;5450;42.994;23.372;2023-04-03T02:14:19;3.67;;;2.90;;
10795;SDS011;5450;42.994;23.372;2023-04-03T02:16:47;3.13;;;2.57;;
10795;SDS011;5450;42.994;23.372;2023-04-03T02:22:22;7.33;;;4.97;;
10795;SDS011;5450;42.994;23.372;2023-04-03T02:24:49;4.67;;;4.17;;
10795;SDS011;5450;42.994;23.372;2023-04-03T02:27:16;4.73;;;3.80;;
10795;SDS011;5450;42.994;23.372;2023-04-03T02:29:46;5.73;;;4.80;;
10795;SDS011;5450;42.994;23.372;2023-04-03T02:32:14;5.20;;;4.70;;
10795;SDS011;5450;42.994;23.372;2023-04-03T02:34:40;4.67;;;4.13;;
10795;SDS011;5450;42.994;23.372;2023-04-03T02:37:09;5.30;;;4.80;;
10795;SDS011;5450;42.994;23.372;2023-04-03T02:39:36;8.10;;;5.57;;
10795;SDS011;5450;42.994;23.372;2023-04-03T02:45:04;6.13;;;5.10;;
10795;SDS011;5450;42.994;23.372;2023-04-03T02:47:32;6.27;;;5.67;;
10795;SDS011;5450;42.994;23.372;2023-04-03T02:49:59;6.40;;;5.73;;
10795;SDS011;5450;42.994;23.372;2023-04-03T02:52:30;5.50;;;4.87;;
10795;SDS011;5450;42.994;23.372;2023-04-03T02:54:57;8.73;;;6.30;;
10795;SDS011;5450;42.994;23.372;2023-04-03T03:00:29;19.87;;;11.53;;
10795;SDS011;5450;42.994;23.372;2023-04-03T03:06:00;18.50;;;11.30;;
10795;SDS011;5450;42.994;23.372;2023-04-03T03:08:33;16.97;;;9.60;;
10795;SDS011;5450;42.994;23.372;2023-04-03T03:11:04;10.80;;;7.77;;
10795;SDS011;5450;42.994;23.372;2023-04-03T03:13:31;8.87;;;6.33;;
10795;SDS011;5450;42.994;23.372;2023-04-03T03:15:59;5.17;;;4.67;;
10795;SDS011;5450;42.994;23.372;2023-04-03T03:18:26;5.77;;;4.50;;
10795;SDS011;5450;42.994;23.372;2023-04-03T03:20:53;3.17;;;2.97;;
10795;SDS011;5450;42.994;23.372;2023-04-03T03:23:21;2.77;;;2.57;;
10795;SDS011;5450;42.994;23.372;2023-04-03T03:25:56;3.10;;;2.53;;
10795;SDS011;5450;42.994;23.372;2023-04-03T03:28:24;2.63;;;2.10;;
10795;SDS011;5450;42.994;23.372;2023-04-03T03:30:56;2.80;;;2.60;;
10795;SDS011;5450;42.994;23.372;2023-04-03T03:33:26;2.27;;;2.07;;
10795;SDS011;5450;42.994;23.372;2023-04-03T03:35:53;2.77;;;2.53;;
10795;SDS011;5450;42.994;23.372;2023-04-03T03:38:21;3.97;;;3.43;;
10795;SDS011;5450;42.994;23.372;2023-04-03T03:40:48;5.97;;;4.07;;
10795;SDS011;5450;42.994;23.372;2023-04-03T03:43:19;3.77;;;3.40;;
10795;SDS011;5450;42.994;23.372;2023-04-03T03:45:49;3.70;;;3.40;;
10795;SDS011;5450;42.994;23.372;2023-04-03T03:51:38;5.57;;;4.10;;
10795;SDS011;5450;42.994;23.372;2023-04-03T03:54:05;9.37;;;3.90;;
10795;SDS011;5450;42.994;23.372;2023-04-03T03:56:33;6.00;;;5.37;;
10795;SDS011;5450;42.994;23.372;2023-04-03T03:59:03;4.37;;;3.97;;
10795;SDS011;5450;42.994;23.372;2023-04-03T04:04:31;4.93;;;4.40;;
10795;SDS011;5450;42.994;23.372;2023-04-03T04:06:58;4.90;;;4.50;;
10795;SDS011;5450;42.994;23.372;2023-04-03T04:09:27;4.17;;;3.87;;
10795;SDS011;5450;42.994;23.372;2023-04-03T04:12:03;4.40;;;3.63;;
10795;SDS011;5450;42.994;23.372;2023-04-03T04:14:32;3.93;;;3.63;;
10795;SDS011;5450;42.994;23.372;2023-04-03T04:17:05;7.20;;;4.67;;
10795;SDS011;5450;42.994;23.372;2023-04-03T04:22:37;4.43;;;3.97;;
10795;SDS011;5450;42.994;23.372;2023-04-03T04:25:04;4.10;;;3.80;;
10795;SDS011;5450;42.994;23.372;2023-04-03T04:27:36;3.97;;;3.57;;
10795;SDS011;5450;42.994;23.372;2023-04-03T04:30:11;3.67;;;3.37;;
10795;SDS011;5450;42.994;23.372;2023-04-03T04:32:40;4.40;;;4.03;;
10795;SDS011;5450;42.994;23.372;2023-04-03T04:41:04;18.10;;;9.50;;
10795;SDS011;5450;42.994;23.372;2023-04-03T04:43:37;16.67;;;9.80;;
10795;SDS011;5450;42.994;23.372;2023-04-03T04:46:11;12.97;;;8.60;;
10795;SDS011;5450;42.994;23.372;2023-04-03T04:48:43;8.20;;;6.27;;
10795;SDS011;5450;42.994;23.372;2023-04-03T04:51:11;7.63;;;6.30;;
10795;SDS011;5450;42.994;23.372;2023-04-03T04:53:38;4.83;;;4.30;;
10795;SDS011;5450;42.994;23.372;2023-04-03T04:56:05;7.60;;;4.67;;
10795;SDS011;5450;42.994;23.372;2023-04-03T04:58:35;6.17;;;5.30;;
10795;SDS011;5450;42.994;23.372;2023-04-03T05:04:03;6.43;;;5.07;;
10795;SDS011;5450;42.994;23.372;2023-04-03T05:06:32;6.53;;;4.83;;
10795;SDS011;5450;42.994;23.372;2023-04-03T05:09:03;11.17;;;5.07;;
10795;SDS011;5450;42.994;23.372;2023-04-03T05:11:31;7.33;;;5.57;;
10795;SDS011;5450;42.994;23.372;2023-04-03T05:20:16;5.07;;;4.30;;
10795;SDS011;5450;42.994;23.372;2023-04-03T05:22:45;6.70;;;4.43;;
10795;SDS011;5450;42.994;23.372;2023-04-03T05:25:12;5.90;;;4.23;;
10795;SDS011;5450;42.994;23.372;2023-04-03T05:27:39;4.73;;;4.23;;
10795;SDS011;5450;42.994;23.372;2023-04-03T05:30:06;4.13;;;3.83;;
10795;SDS011;5450;42.994;23.372;2023-04-03T05:36:03;4.30;;;3.70;;
10795;SDS011;5450;42.994;23.372;2023-04-03T05:38:30;4.60;;;3.80;;
10795;SDS011;5450;42.994;23.372;2023-04-03T05:40:58;4.10;;;3.73;;
10795;SDS011;5450;42.994;23.372;2023-04-03T05:43:25;4.83;;;4.33;;
10795;SDS011;5450;42.994;23.372;2023-04-03T05:45:52;5.63;;;4.67;;
10795;SDS011;5450;42.994;23.372;2023-04-03T05:48:19;3.97;;;3.40;;
10795;SDS011;5450;42.994;23.372;2023-04-03T05:50:46;5.33;;;4.60;;
10795;SDS011;5450;42.994;23.372;2023-04-03T05:53:17;6.80;;;6.20;;
10795;SDS011;5450;42.994;23.372;2023-04-03T05:55:53;11.37;;;6.40;;
10795;SDS011;5450;42.994;23.372;2023-04-03T05:58:20;6.63;;;5.77;;
10795;SDS011;5450;42.994;23.372;2023-04-03T06:00:47;5.07;;;4.67;;
10795;SDS011;5450;42.994;23.372;2023-04-03T06:03:14;6.63;;;5.40;;
10795;SDS011;5450;42.994;23.372;2023-04-03T06:05:41;6.80;;;5.87;;
10795;SDS011;5450;42.994;23.372;2023-04-03T06:08:08;6.27;;;5.77;;
10795;SDS011;5450;42.994;23.372;2023-04-03T06:10:39;3.90;;;3.60;;
10795;SDS011;5450;42.994;23.372;2023-04-03T06:13:08;5.03;;;3.60;;
10795;SDS011;5450;42.994;23.372;2023-04-03T06:15:36;3.37;;;3.13;;
10795;SDS011;5450;42.994;23.372;2023-04-03T06:18:05;6.47;;;3.97;;
10795;SDS011;5450;42.994;23.372;2023-04-03T06:20:32;4.23;;;3.83;;
10795;SDS011;5450;42.994;23.372;2023-04-03T06:22:59;3.63;;;3.43;;
10795;SDS011;5450;42.994;23.372;2023-04-03T06:25:27;3.70;;;3.40;;
10795;SDS011;5450;42.994;23.372;2023-04-03T06:27:55;3.87;;;3.57;;
10795;SDS011;5450;42.994;23.372;2023-04-03T06:30:23;5.40;;;4.37;;
10795;SDS011;5450;42.994;23.372;2023-04-03T06:32:50;4.63;;;4.17;;
10795;SDS011;5450;42.994;23.372;2023-04-03T06:35:18;3.90;;;3.60;;
10795;SDS011;5450;42.994;23.372;2023-04-03T06:37:46;3.40;;;3.10;;
10795;SDS011;5450;42.994;23.372;2023-04-03T06:40:15;3.50;;;2.97;;
10795;SDS011;5450;42.994;23.372;2023-04-03T06:42:48;3.03;;;2.73;;
10795;SDS011;5450;42.994;23.372;2023-04-03T06:45:19;2.47;;;2.27;;
10795;SDS011;5450;42.994;23.372;2023-04-03T06:47:47;2.20;;;2.10;;
10795;SDS011;5450;42.994;23.372;2023-04-03T06:50:15;2.60;;;2.40;;
10795;SDS011;5450;42.994;23.372;2023-04-03T06:52:43;3.20;;;3.00;;
10795;SDS011;5450;42.994;23.372;2023-04-03T06:55:11;3.97;;;3.53;;
10795;SDS011;5450;42.994;23.372;2023-04-03T06:57:39;3.40;;;2.97;;
10795;SDS011;5450;42.994;23.372;2023-04-03T07:00:07;2.97;;;2.77;;
10795;SDS011;5450;42.994;23.372;2023-04-03T07:02:37;3.53;;;3.23;;
10795;SDS011;5450;42.994;23.372;2023-04-03T07:05:06;3.07;;;2.47;;
10795;SDS011;5450;42.994;23.372;2023-04-03T07:07:35;2.50;;;2.30;;
10795;SDS011;5450;42.994;23.372;2023-04-03T07:10:05;2.50;;;2.40;;
10795;SDS011;5450;42.994;23.372;2023-04-03T07:12:33;2.50;;;2.30;;
10795;SDS011;5450;42.994;23.372;2023-04-03T07:15:02;2.40;;;2.20;;
10795;SDS011;5450;42.994;23.372;2023-04-03T07:17:31;2.13;;;2.03;;
10795;SDS011;5450;42.994;23.372;2023-04-03T07:20:00;2.53;;;2.33;;
10795;SDS011;5450;42.994;23.372;2023-04-03T07:22:29;2.53;;;2.33;;
10795;SDS011;5450;42.994;23.372;2023-04-03T07:24:58;3.23;;;2.93;;
10795;SDS011;5450;42.994;23.372;2023-04-03T07:27:26;2.60;;;2.47;;
10795;SDS011;5450;42.994;23.372;2023-04-03T07:29:53;3.10;;;2.90;;
10795;SDS011;5450;42.994;23.372;2023-04-03T07:32:21;2.90;;;2.70;;
10795;SDS011;5450;42.994;23.372;2023-04-03T07:34:48;2.70;;;2.50;;
10795;SDS011;5450;42.994;23.372;2023-04-03T07:37:17;3.50;;;2.73;;
10795;SDS011;5450;42.994;23.372;2023-04-03T07:39:45;2.87;;;2.67;;
10795;SDS011;5450;42.994;23.372;2023-04-03T07:42:13;2.17;;;1.90;;
10795;SDS011;5450;42.994;23.372;2023-04-03T07:44:41;1.50;;;1.40;;
10795;SDS011;5450;42.994;23.372;2023-04-03T07:47:09;1.77;;;1.67;;
10795;SDS011;5450;42.994;23.372;2023-04-03T07:49:36;1.40;;;1.30;;
10795;SDS011;5450;42.994;23.372;2023-04-03T07:52:06;1.50;;;1.50;;
10795;SDS011;5450;42.994;23.372;2023-04-03T07:54:35;2.33;;;2.13;;
10795;SDS011;5450;42.994;23.372;2023-04-03T07:57:03;2.93;;;2.63;;
10795;SDS011;5450;42.994;23.372;2023-04-03T07:59:31;2.50;;;2.30;;
10795;SDS011;5450;42.994;23.372;2023-04-03T08:01:58;2.37;;;1.87;;
10795;SDS011;5450;42.994;23.372;2023-04-03T08:04:27;1.73;;;1.63;;
10795;SDS011;5450;42.994;23.372;2023-04-03T08:06:55;1.70;;;1.60;;
10795;SDS011;5450;42.994;23.372;2023-04-03T08:09:23;2.03;;;1.83;;
10795;SDS011;5450;42.994;23.372;2023-04-03T08:11:54;2.20;;;2.00;;
10795;SDS011;5450;42.994;23.372;2023-04-03T08:14:22;1.83;;;1.73;;
10795;SDS011;5450;42.994;23.372;2023-04-03T08:16:49;2.00;;;1.90;;
10795;SDS011;5450;42.994;23.372;2023-04-03T08:19:23;2.87;;;2.03;;
10795;SDS011;5450;42.994;23.372;2023-04-03T08:21:52;1.60;;;1.50;;
10795;SDS011;5450;42.994;23.372;2023-04-03T08:27:19;1.80;;;1.70;;
10795;SDS011;5450;42.994;23.372;2023-04-03T08:29:48;1.97;;;1.87;;
10795;SDS011;5450;42.994;23.372;2023-04-03T08:32:17;1.80;;;1.70;;
10795;SDS011;5450;42.994;23.372;2023-04-03T08:34:44;1.70;;;1.60;;
10795;SDS011;5450;42.994;23.372;2023-04-03T08:37:11;2.00;;;1.90;;
10795;SDS011;5450;42.994;23.372;2023-04-03T08:39:39;1.90;;;1.80;;
10795;SDS011;5450;42.994;23.372;2023-04-03T08:42:10;1.90;;;1.80;;
10795;SDS011;5450;42.994;23.372;2023-04-03T08:44:46;1.10;;;1.10;;
10795;SDS011;5450;42.994;23.372;2023-04-03T08:47:21;0.93;;;0.80;;
10795;SDS011;5450;42.994;23.372;2023-04-03T08:49:53;1.73;;;1.63;;
10795;SDS011;5450;42.994;23.372;2023-04-03T08:52:26;1.17;;;1.07;;
10795;SDS011;5450;42.994;23.372;2023-04-03T08:55:03;0.73;;;0.73;;
10795;SDS011;5450;42.994;23.372;2023-04-03T08:57:34;1.00;;;0.57;;
10795;SDS011;5450;42.994;23.372;2023-04-03T09:00:14;1.03;;;0.93;;
10795;SDS011;5450;42.994;23.372;2023-04-03T09:02:44;0.43;;;0.43;;
10795;SDS011;5450;42.994;23.372;2023-04-03T09:05:15;0.77;;;0.77;;
10795;SDS011;5450;42.994;23.372;2023-04-03T09:07:45;1.03;;;0.90;;
10795;SDS011;5450;42.994;23.372;2023-04-03T09:10:19;0.60;;;0.60;;
10795;SDS011;5450;42.994;23.372;2023-04-03T09:12:53;0.50;;;0.50;;
10795;SDS011;5450;42.994;23.372;2023-04-03T09:15:30;1.67;;;1.60;;
10795;SDS011;5450;42.994;23.372;2023-04-03T09:17:59;0.53;;;0.53;;
10795;SDS011;5450;42.994;23.372;2023-04-03T09:20:35;1.70;;;1.60;;
10795;SDS011;5450;42.994;23.372;2023-04-03T09:23:16;0.73;;;0.73;;
10795;SDS011;5450;42.994;23.372;2023-04-03T09:25:48;0.77;;;0.77;;
10795;SDS011;5450;42.994;23.372;2023-04-03T09:28:18;0.47;;;0.43;;
10795;SDS011;5450;42.994;23.372;2023-04-03T09:30:47;0.60;;;0.60;;
10795;SDS011;5450;42.994;23.372;2023-04-03T09:33:17;0.70;;;0.70;;
10795;SDS011;5450;42.994;23.372;2023-04-03T09:35:49;0.70;;;0.70;;
10795;SDS011;5450;42.994;23.372;2023-04-03T09:38:18;0.70;;;0.70;;
10795;SDS011;5450;42.994;23.372;2023-04-03T09:40:49;0.60;;;0.60;;
10795;SDS011;5450;42.994;23.372;2023-04-03T09:43:29;3.63;;;3.33;;
10795;SDS011;5450;42.994;23.372;2023-04-03T09:49:00;0.80;;;0.80;;
10795;SDS011;5450;42.994;23.372;2023-04-03T09:51:30;0.60;;;0.60;;
10795;SDS011;5450;42.994;23.372;2023-04-03T09:54:01;5.60;;;4.57;;
10795;SDS011;5450;42.994;23.372;2023-04-03T09:57:07;0.70;;;0.70;;
10795;SDS011;5450;42.994;23.372;2023-04-03T09:59:40;0.83;;;0.83;;
10795;SDS011;5450;42.994;23.372;2023-04-03T10:05:03;1.27;;;0.60;;
10795;SDS011;5450;42.994;23.372;2023-04-03T10:07:32;0.50;;;0.50;;
10795;SDS011;5450;42.994;23.372;2023-04-03T10:10:17;0.97;;;0.97;;
10795;SDS011;5450;42.994;23.372;2023-04-03T10:12:45;0.67;;;0.67;;
10795;SDS011;5450;42.994;23.372;2023-04-03T10:15:13;0.97;;;0.97;;
10795;SDS011;5450;42.994;23.372;2023-04-03T10:17:49;0.73;;;0.73;;
10795;SDS011;5450;42.994;23.372;2023-04-03T10:20:29;1.30;;;1.20;;
10795;SDS011;5450;42.994;23.372;2023-04-03T10:23:14;2.00;;;1.40;;
10795;SDS011;5450;42.994;23.372;2023-04-03T10:25:49;3.03;;;1.97;;
10795;SDS011;5450;42.994;23.372;2023-04-03T10:28:32;1.00;;;1.00;;
10795;SDS011;5450;42.994;23.372;2023-04-03T10:31:09;1.13;;;1.13;;
10795;SDS011;5450;42.994;23.372;2023-04-03T10:33:48;0.60;;;0.60;;
10795;SDS011;5450;42.994;23.372;2023-04-03T10:36:25;2.47;;;1.20;;
10795;SDS011;5450;42.994;23.372;2023-04-03T10:39:02;0.70;;;0.70;;
10795;SDS011;5450;42.994;23.372;2023-04-03T10:41:44;0.90;;;0.90;;
10795;SDS011;5450;42.994;23.372;2023-04-03T10:44:26;1.10;;;1.10;;
10795;SDS011;5450;42.994;23.372;2023-04-03T10:47:04;0.50;;;0.50;;
10795;SDS011;5450;42.994;23.372;2023-04-03T10:49:41;0.50;;;0.50;;
10795;SDS011;5450;42.994;23.372;2023-04-03T10:52:19;0.50;;;0.50;;
10795;SDS011;5450;42.994;23.372;2023-04-03T10:54:55;0.60;;;0.60;;
10795;SDS011;5450;42.994;23.372;2023-04-03T10:57:31;0.80;;;0.70;;
10795;SDS011;5450;42.994;23.372;2023-04-03T11:00:02;0.90;;;0.90;;
10795;SDS011;5450;42.994;23.372;2023-04-03T11:02:35;2.43;;;2.23;;
10795;SDS011;5450;42.994;23.372;2023-04-03T11:05:06;1.20;;;1.20;;
10795;SDS011;5450;42.994;23.372;2023-04-03T11:07:43;1.30;;;1.30;;
10795;SDS011;5450;42.994;23.372;2023-04-03T11:10:17;0.70;;;0.70;;
10795;SDS011;5450;42.994;23.372;2023-04-03T11:12:54;0.90;;;0.90;;
10795;SDS011;5450;42.994;23.372;2023-04-03T11:15:29;1.50;;;0.80;;
10795;SDS011;5450;42.994;23.372;2023-04-03T11:18:00;0.63;;;0.63;;
10795;SDS011;5450;42.994;23.372;2023-04-03T11:20:32;1.10;;;1.10;;
10795;SDS011;5450;42.994;23.372;2023-04-03T11:23:03;1.70;;;1.60;;
10795;SDS011;5450;42.994;23.372;2023-04-03T11:25:34;1.20;;;1.10;;
10795;SDS011;5450;42.994;23.372;2023-04-03T11:28:09;1.73;;;1.63;;
10795;SDS011;5450;42.994;23.372;2023-04-03T11:30:43;1.67;;;1.57;;
10795;SDS011;5450;42.994;23.372;2023-04-03T11:33:20;3.50;;;2.67;;
10795;SDS011;5450;42.994;23.372;2023-04-03T11:35:57;2.07;;;1.97;;
10795;SDS011;5450;42.994;23.372;2023-04-03T11:38:32;1.57;;;1.47;;
10795;SDS011;5450;42.994;23.372;2023-04-03T11:41:06;1.90;;;1.80;;
10795;SDS011;5450;42.994;23.372;2023-04-03T11:43:41;0.80;;;0.80;;
10795;SDS011;5450;42.994;23.372;2023-04-03T11:46:26;1.10;;;1.10;;
10795;SDS011;5450;42.994;23.372;2023-04-03T11:58:22;1.07;;;0.93;;
10795;SDS011;5450;42.994;23.372;2023-04-03T12:00:57;0.80;;;0.80;;
10795;SDS011;5450;42.994;23.372;2023-04-03T12:03:32;1.10;;;0.90;;
10795;SDS011;5450;42.994;23.372;2023-04-03T12:09:27;1.10;;;1.10;;
10795;SDS011;5450;42.994;23.372;2023-04-03T12:12:00;1.13;;;1.07;;
10795;SDS011;5450;42.994;23.372;2023-04-03T12:14:47;1.00;;;1.00;;
10795;SDS011;5450;42.994;23.372;2023-04-03T12:17:21;0.80;;;0.80;;
10795;SDS011;5450;42.994;23.372;2023-04-03T12:19:54;0.70;;;0.70;;
10795;SDS011;5450;42.994;23.372;2023-04-03T12:22:23;0.90;;;0.90;;
10795;SDS011;5450;42.994;23.372;2023-04-03T12:24:51;1.37;;;1.27;;
10795;SDS011;5450;42.994;23.372;2023-04-03T12:27:23;0.80;;;0.80;;
10795;SDS011;5450;42.994;23.372;2023-04-03T12:29:55;1.43;;;1.40;;
10795;SDS011;5450;42.994;23.372;2023-04-03T12:32:34;1.40;;;1.30;;
10795;SDS011;5450;42.994;23.372;2023-04-03T12:35:14;1.17;;;1.00;;
10795;SDS011;5450;42.994;23.372;2023-04-03T12:40:51;0.70;;;0.53;;
10795;SDS011;5450;42.994;23.372;2023-04-03T12:43:30;0.60;;;0.60;;
10795;SDS011;5450;42.994;23.372;2023-04-03T12:46:10;0.70;;;0.70;;
10795;SDS011;5450;42.994;23.372;2023-04-03T12:48:48;0.70;;;0.70;;
10795;SDS011;5450;42.994;23.372;2023-04-03T12:51:19;0.83;;;0.83;;
10795;SDS011;5450;42.994;23.372;2023-04-03T12:53:49;4.33;;;1.00;;
10795;SDS011;5450;42.994;23.372;2023-04-03T12:56:24;0.70;;;0.70;;
10795;SDS011;5450;42.994;23.372;2023-04-03T12:58:54;0.70;;;0.70;;
10795;SDS011;5450;42.994;23.372;2023-04-03T13:01:24;0.60;;;0.60;;
10795;SDS011;5450;42.994;23.372;2023-04-03T13:03:57;0.97;;;0.97;;
10795;SDS011;5450;42.994;23.372;2023-04-03T13:06:26;0.80;;;0.80;;
10795;SDS011;5450;42.994;23.372;2023-04-03T13:08:57;0.97;;;0.97;;
10795;SDS011;5450;42.994;23.372;2023-04-03T13:11:26;5.00;;;4.60;;
10795;SDS011;5450;42.994;23.372;2023-04-03T13:13:58;1.93;;;1.83;;
10795;SDS011;5450;42.994;23.372;2023-04-03T13:16:32;1.70;;;1.60;;
10795;SDS011;5450;42.994;23.372;2023-04-03T13:19:02;1.73;;;1.50;;
10795;SDS011;5450;42.994;23.372;2023-04-03T13:24:29;1.57;;;1.57;;
10795;SDS011;5450;42.994;23.372;2023-04-03T13:26:58;1.83;;;1.73;;
10795;SDS011;5450;42.994;23.372;2023-04-03T13:29:26;1.50;;;1.40;;
10795;SDS011;5450;42.994;23.372;2023-04-03T13:31:57;1.30;;;1.30;;
10795;SDS011;5450;42.994;23.372;2023-04-03T13:34:29;1.20;;;1.00;;
10795;SDS011;5450;42.994;23.372;2023-04-03T13:37:04;7.83;;;7.20;;
10795;SDS011;5450;42.994;23.372;2023-04-03T13:43:05;4.23;;;3.83;;
10795;SDS011;5450;42.994;23.372;2023-04-03T13:45:54;3.33;;;3.00;;
10795;SDS011;5450;42.994;23.372;2023-04-03T13:48:28;2.03;;;1.50;;
10795;SDS011;5450;42.994;23.372;2023-04-03T13:51:05;2.37;;;2.27;;
10795;SDS011;5450;42.994;23.372;2023-04-03T13:53:50;1.90;;;1.80;;
10795;SDS011;5450;42.994;23.372;2023-04-03T13:59:50;0.90;;;0.90;;
10795;SDS011;5450;42.994;23.372;2023-04-03T14:12:21;1.80;;;1.70;;
10795;SDS011;5450;42.994;23.372;2023-04-03T14:21:50;1.93;;;1.83;;
10795;SDS011;5450;42.994;23.372;2023-04-03T14:37:25;2.00;;;1.90;;
10795;SDS011;5450;42.994;23.372;2023-04-03T14:40:01;3.03;;;2.33;;
10795;SDS011;5450;42.994;23.372;2023-04-03T14:53:00;2.90;;;2.80;;
10795;SDS011;5450;42.994;23.372;2023-04-03T14:58:58;2.27;;;2.17;;
10795;SDS011;5450;42.994;23.372;2023-04-03T15:15:07;2.40;;;2.23;;
10795;SDS011;5450;42.994;23.372;2023-04-03T15:24:28;1.97;;;1.80;;
10795;SDS011;5450;42.994;23.372;2023-04-03T15:37:33;3.13;;;2.93;;
10795;SDS011;5450;42.994;23.372;2023-04-03T16:16:04;3.50;;;3.30;;
10795;SDS011;5450;42.994;23.372;2023-04-03T16:22:03;3.60;;;3.37;;
10795;SDS011;5450;42.994;23.372;2023-04-03T16:24:31;3.10;;;2.90;;
10795;SDS011;5450;42.994;23.372;2023-04-03T16:27:00;3.13;;;2.83;;
10795;SDS011;5450;42.994;23.372;2023-04-03T16:29:31;2.53;;;2.43;;
10795;SDS011;5450;42.994;23.372;2023-04-03T16:34:56;2.70;;;2.53;;
10795;SDS011;5450;42.994;23.372;2023-04-03T16:37:24;2.50;;;2.40;;
10795;SDS011;5450;42.994;23.372;2023-04-03T16:39:53;1.97;;;1.87;;
10795;SDS011;5450;42.994;23.372;2023-04-03T16:42:24;2.50;;;2.30;;
10795;SDS011;5450;42.994;23.372;2023-04-03T16:58:25;2.20;;;2.10;;
10795;SDS011;5450;42.994;23.372;2023-04-03T17:07:50;2.17;;;2.07;;
10795;SDS011;5450;42.994;23.372;2023-04-03T17:37:42;2.43;;;2.27;;
10795;SDS011;5450;42.994;23.372;2023-04-03T17:47:12;2.23;;;1.90;;
10795;SDS011;5450;42.994;23.372;2023-04-03T17:53:17;1.90;;;1.80;;
10795;SDS011;5450;42.994;23.372;2023-04-03T17:55:51;1.80;;;1.70;;
10795;SDS011;5450;42.994;23.372;2023-04-03T18:01:48;1.70;;;1.60;;
10795;SDS011;5450;42.994;23.372;2023-04-03T18:20:44;3.20;;;2.63;;
10795;SDS011;5450;42.994;23.372;2023-04-03T18:26:43;2.00;;;1.90;;
10795;SDS011;5450;42.994;23.372;2023-04-03T18:32:42;1.87;;;1.77;;
10795;SDS011;5450;42.994;23.372;2023-04-03T18:35:09;1.77;;;1.67;;
10795;SDS011;5450;42.994;23.372;2023-04-03T18:37:41;1.20;;;1.20;;
10795;SDS011;5450;42.994;23.372;2023-04-03T18:59:57;1.60;;;1.50;;
10795;SDS011;5450;42.994;23.372;2023-04-03T19:02:29;1.90;;;1.80;;
10795;SDS011;5450;42.994;23.372;2023-04-03T19:12:19;1.27;;;1.27;;
10795;SDS011;5450;42.994;23.372;2023-04-03T19:18:28;1.43;;;1.43;;
10795;SDS011;5450;42.994;23.372;2023-04-03T19:38:34;0.87;;;0.87;;
10795;SDS011;5450;42.994;23.372;2023-04-03T19:50:36;1.20;;;1.20;;
10795;SDS011;5450;42.994;23.372;2023-04-03T19:53:04;1.20;;;1.20;;
10795;SDS011;5450;42.994;23.372;2023-04-03T19:58:29;0.90;;;0.90;;
10795;SDS011;5450;42.994;23.372;2023-04-03T20:04:38;1.03;;;0.90;;
10795;SDS011;5450;42.994;23.372;2023-04-03T20:32:04;0.87;;;0.80;;
10795;SDS011;5450;42.994;23.372;2023-04-03T20:34:38;0.90;;;0.90;;
10795;SDS011;5450;42.994;23.372;2023-04-03T20:40:02;1.33;;;0.60;;
10795;SDS011;5450;42.994;23.372;2023-04-03T21:22:26;9.70;;;8.67;;
10795;SDS011;5450;42.994;23.372;2023-04-03T21:31:52;8.10;;;7.40;;
10795;SDS011;5450;42.994;23.372;2023-04-03T21:34:24;11.00;;;9.90;;
10795;SDS011;5450;42.994;23.372;2023-04-03T21:36:54;12.17;;;10.93;;
10795;SDS011;5450;42.994;23.372;2023-04-03T21:39:24;8.73;;;7.90;;
10795;SDS011;5450;42.994;23.372;2023-04-03T21:41:56;7.93;;;6.63;;
10795;SDS011;5450;42.994;23.372;2023-04-03T21:44:25;7.43;;;6.20;;
10795;SDS011;5450;42.994;23.372;2023-04-03T21:46:52;7.60;;;6.67;;
10795;SDS011;5450;42.994;23.372;2023-04-03T21:49:20;6.43;;;5.93;;
10795;SDS011;5450;42.994;23.372;2023-04-03T21:51:47;9.53;;;8.23;;
10795;SDS011;5450;42.994;23.372;2023-04-03T21:54:15;8.63;;;7.80;;
10795;SDS011;5450;42.994;23.372;2023-04-03T22:14:04;3.17;;;2.93;;
10795;SDS011;5450;42.994;23.372;2023-04-03T22:23:40;2.43;;;2.33;;
10795;SDS011;5450;42.994;23.372;2023-04-03T22:35:52;1.93;;;1.60;;
10795;SDS011;5450;42.994;23.372;2023-04-03T22:38:20;1.40;;;1.30;;
10795;SDS011;5450;42.994;23.372;2023-04-03T22:51:31;0.93;;;0.93;;
10795;SDS011;5450;42.994;23.372;2023-04-03T22:53:59;0.97;;;0.97;;
10795;SDS011;5450;42.994;23.372;2023-04-03T22:56:26;1.20;;;0.77;;
10795;SDS011;5450;42.994;23.372;2023-04-03T22:58:54;0.87;;;0.87;;
10795;SDS011;5450;42.994;23.372;2023-04-03T23:01:21;0.90;;;0.90;;
10795;SDS011;5450;42.994;23.372;2023-04-03T23:03:49;1.00;;;1.00;;